Time;durP1;ratioP1;P1;durP2;ratioP2;P2;SDS_P1;SDS_P2;PMS_P1;PMS_P2;Temp;Humidity;BMP_temperature;BMP_pressure;BME280_temperature;BME280_humidity;BME280_pressure;Samples;Min_cycle;Max_cycle;Signal;HPM_P1;HPM_P2
2021/12/05 00:26:31;;;;;;;5.10;1.35;;;;;;;;;;4978755;28;20042;-21
2021/12/05 00:31:56;;;;;;;2.13;1.25;;;;;;;;;;4978225;28;20049;-21
2021/12/05 00:34:53;;;;;;;4.50;1.88;;;;;;;;;;4963166;28;20035;-20
2021/12/05 00:38:01;;;;;;;4.68;1.77;;;;;;;;;;4977924;28;20027;-22
2021/12/05 00:40:42;;;;;;;6.60;1.73;;;;;;;;;;4977728;28;20183;-21
2021/12/05 00:48:52;;;;;;;2.78;1.77;;;;;;;;;;4977761;28;20066;-22
2021/12/05 01:05:25;;;;;;;2.60;1.55;;;;;;;;;;4977331;28;20057;-22
2021/12/05 01:15:32;;;;;;;3.42;1.42;;;;;;;;;;4977353;28;20105;-21
2021/12/05 01:18:04;;;;;;;5.75;1.70;;;;;;;;;;4977206;28;20019;-22
2021/12/05 01:20:33;;;;;;;3.70;1.42;;;;;;;;;;4977261;28;20035;-21
2021/12/05 01:23:22;;;;;;;3.80;1.85;;;;;;;;;;4977194;28;20047;-21
2021/12/05 01:26:03;;;;;;;4.22;1.30;;;;;;;;;;4977382;28;20041;-21
2021/12/05 01:33:40;;;;;;;2.25;1.13;;;;;;;;;;4976920;28;20089;-21
2021/12/05 01:36:17;;;;;;;2.53;1.20;;;;;;;;;;4976871;28;20507;-22
2021/12/05 01:45:33;;;;;;;5.25;1.48;;;;;;;;;;4899171;29;20433;-21
2021/12/05 01:57:46;;;;;;;4.60;1.38;;;;;;;;;;4977032;28;20043;-21
2021/12/05 02:00:58;;;;;;;1.90;0.93;;;;;;;;;;4976451;28;20462;-21
2021/12/05 02:31:29;;;;;;;3.47;1.40;;;;;;;;;;4975879;28;20045;-21
2021/12/05 02:37:30;;;;;;;4.13;1.42;;;;;;;;;;4976095;28;20461;-21
2021/12/05 02:39:53;;;;;;;4.20;1.52;;;;;;;;;;4971832;28;20066;-21
2021/12/05 02:42:37;;;;;;;4.13;1.45;;;;;;;;;;4976262;28;20057;-20
2021/12/05 02:45:06;;;;;;;4.32;1.52;;;;;;;;;;4975723;28;20034;-22
2021/12/05 02:47:33;;;;;;;2.60;1.65;;;;;;;;;;4975990;28;20172;-21
2021/12/05 02:50:00;;;;;;;3.13;1.30;;;;;;;;;;4975895;28;20030;-21
2021/12/05 02:52:32;;;;;;;4.45;1.55;;;;;;;;;;4975083;28;20023;-21
2021/12/05 02:55:07;;;;;;;3.03;1.40;;;;;;;;;;4975867;28;20023;-21
2021/12/05 03:00:09;;;;;;;1.77;1.02;;;;;;;;;;4975501;28;20030;-21
2021/12/05 03:02:40;;;;;;;5.82;1.85;;;;;;;;;;4975452;28;20525;-21
2021/12/05 03:05:11;;;;;;;4.07;1.42;;;;;;;;;;4975584;28;20171;-20
2021/12/05 03:07:41;;;;;;;1.85;1.23;;;;;;;;;;4975815;28;20462;-23
2021/12/05 03:10:08;;;;;;;1.92;1.73;;;;;;;;;;4975713;28;20027;-22
2021/12/05 03:12:35;;;;;;;2.60;1.23;;;;;;;;;;4958275;28;20334;-22
2021/12/05 03:15:04;;;;;;;2.20;1.40;;;;;;;;;;4975930;28;20037;-22
2021/12/05 03:17:30;;;;;;;2.53;1.40;;;;;;;;;;4975341;28;20039;-21
2021/12/05 03:19:56;;;;;;;4.80;2.88;;;;;;;;;;4975303;28;20039;-21
2021/12/05 03:22:23;;;;;;;2.35;1.10;;;;;;;;;;4975290;28;20070;-21
2021/12/05 03:24:50;;;;;;;2.33;1.10;;;;;;;;;;4975371;28;20022;-21
2021/12/05 03:27:16;;;;;;;2.88;1.40;;;;;;;;;;4975321;28;20129;-21
2021/12/05 03:29:43;;;;;;;3.38;1.35;;;;;;;;;;4975256;28;20031;-21
2021/12/05 03:32:09;;;;;;;5.10;1.50;;;;;;;;;;4958066;28;20316;-22
2021/12/05 03:34:35;;;;;;;2.60;1.27;;;;;;;;;;4975515;28;20023;-23
2021/12/05 03:37:03;;;;;;;2.33;1.27;;;;;;;;;;4975195;28;20029;-21
2021/12/05 03:39:29;;;;;;;4.03;1.40;;;;;;;;;;4958095;28;20027;-21
2021/12/05 03:41:57;;;;;;;2.38;1.17;;;;;;;;;;4975123;28;20027;-23
2021/12/05 03:44:25;;;;;;;5.03;1.92;;;;;;;;;;4975142;28;20039;-22
2021/12/05 03:46:52;;;;;;;3.45;1.70;;;;;;;;;;4975350;28;20031;-20
2021/12/05 03:49:18;;;;;;;2.05;1.42;;;;;;;;;;4975151;28;20043;-21
2021/12/05 03:51:47;;;;;;;1.95;1.20;;;;;;;;;;4975324;28;20369;-21
2021/12/05 03:54:14;;;;;;;4.28;1.20;;;;;;;;;;4975064;28;20524;-23
2021/12/05 03:56:41;;;;;;;2.15;1.50;;;;;;;;;;4958028;28;20466;-21
2021/12/05 03:59:09;;;;;;;4.85;1.23;;;;;;;;;;4975057;28;20023;-22
2021/12/05 04:01:36;;;;;;;3.90;1.10;;;;;;;;;;4975015;28;20042;-21
2021/12/05 04:04:03;;;;;;;4.93;1.38;;;;;;;;;;4976627;28;20159;-22
2021/12/05 04:06:29;;;;;;;2.47;1.15;;;;;;;;;;4978559;28;20034;-22
2021/12/05 04:09:00;;;;;;;4.22;1.48;;;;;;;;;;4978445;28;20031;-22
2021/12/05 04:11:30;;;;;;;4.63;1.52;;;;;;;;;;4978656;28;20434;-25
2021/12/05 04:13:57;;;;;;;1.90;1.40;;;;;;;;;;4978628;28;20027;-21
2021/12/05 04:16:24;;;;;;;2.35;1.33;;;;;;;;;;4978543;28;20159;-21
2021/12/05 04:18:50;;;;;;;2.30;1.52;;;;;;;;;;4978352;28;20410;-22
2021/12/05 04:21:17;;;;;;;1.70;1.27;;;;;;;;;;4978233;28;20362;-21
2021/12/05 04:23:44;;;;;;;4.43;1.70;;;;;;;;;;4978131;28;20438;-21
2021/12/05 04:26:11;;;;;;;1.70;1.45;;;;;;;;;;4978187;28;20121;-21
2021/12/05 04:28:38;;;;;;;4.32;1.20;;;;;;;;;;4978090;28;20097;-22
2021/12/05 04:31:08;;;;;;;2.40;1.77;;;;;;;;;;4978246;28;20019;-21
2021/12/05 04:33:34;;;;;;;2.92;1.30;;;;;;;;;;4960841;28;20093;-22
2021/12/05 04:36:00;;;;;;;1.63;1.10;;;;;;;;;;4960915;28;20109;-21
2021/12/05 04:38:27;;;;;;;1.77;1.17;;;;;;;;;;4978431;28;20037;-21
2021/12/05 04:40:53;;;;;;;2.03;1.20;;;;;;;;;;4977830;28;20023;-21
2021/12/05 04:43:20;;;;;;;2.13;1.35;;;;;;;;;;4977782;28;20047;-21
2021/12/05 04:45:46;;;;;;;3.75;1.10;;;;;;;;;;4978015;28;20037;-21
2021/12/05 04:48:13;;;;;;;2.35;1.05;;;;;;;;;;4961224;28;20120;-22
2021/12/05 04:50:39;;;;;;;2.97;1.65;;;;;;;;;;4977951;28;20030;-21
2021/12/05 04:53:06;;;;;;;5.25;2.17;;;;;;;;;;4977814;28;20078;-27
2021/12/05 04:55:33;;;;;;;2.13;1.25;;;;;;;;;;4977657;28;20049;-21
2021/12/05 04:58:01;;;;;;;1.92;1.02;;;;;;;;;;4977569;28;20048;-21
2021/12/05 05:00:30;;;;;;;3.33;1.20;;;;;;;;;;4977478;28;20030;-23
2021/12/05 05:02:57;;;;;;;2.25;1.40;;;;;;;;;;4977664;28;20031;-21
2021/12/05 05:05:25;;;;;;;4.18;1.45;;;;;;;;;;4977310;28;20061;-21
2021/12/05 05:07:51;;;;;;;3.92;1.20;;;;;;;;;;4977470;28;20446;-21
2021/12/05 05:10:24;;;;;;;3.45;1.48;;;;;;;;;;4977364;28;20069;-22
2021/12/05 05:12:51;;;;;;;2.08;1.10;;;;;;;;;;4977473;28;20027;-21
2021/12/05 05:15:21;;;;;;;3.95;1.25;;;;;;;;;;4976442;28;20023;-21
2021/12/05 05:17:50;;;;;;;1.40;1.10;;;;;;;;;;4977591;28;20026;-21
2021/12/05 05:20:27;;;;;;;3.42;1.92;;;;;;;;;;4977185;28;20474;-22
2021/12/05 05:42:38;;;;;;;1.95;1.20;;;;;;;;;;4977000;28;20109;-21
2021/12/05 05:45:20;;;;;;;1.50;1.02;;;;;;;;;;4976531;28;20073;-21
2021/12/05 05:50:13;;;;;;;2.15;0.98;;;;;;;;;;4976688;28;20171;-22
2021/12/05 05:52:40;;;;;;;4.30;1.50;;;;;;;;;;4976490;28;20034;-21
2021/12/05 05:55:06;;;;;;;3.38;1.50;;;;;;;;;;4976466;28;20030;-21
2021/12/05 05:57:39;;;;;;;1.70;0.95;;;;;;;;;;4976510;28;20134;-21
2021/12/05 06:00:17;;;;;;;2.30;1.42;;;;;;;;;;4976791;28;20354;-21
2021/12/05 06:05:32;;;;;;;1.98;1.60;;;;;;;;;;4976320;28;20061;-21
2021/12/05 06:07:59;;;;;;;1.83;1.20;;;;;;;;;;4976869;28;20101;-21
2021/12/05 06:10:26;;;;;;;1.92;1.30;;;;;;;;;;4976521;28;20023;-21
2021/12/05 06:12:53;;;;;;;2.85;1.08;;;;;;;;;;4959065;28;20026;-22
2021/12/05 06:15:20;;;;;;;1.80;1.40;;;;;;;;;;4959097;28;20026;-21
2021/12/05 06:17:46;;;;;;;3.97;1.42;;;;;;;;;;4976421;28;20038;-20
2021/12/05 06:20:15;;;;;;;3.38;1.45;;;;;;;;;;4959045;28;20113;-21
2021/12/05 06:22:43;;;;;;;2.67;1.40;;;;;;;;;;4976382;28;20035;-21
2021/12/05 06:25:13;;;;;;;2.47;1.15;;;;;;;;;;4976020;28;20031;-27
2021/12/05 06:27:41;;;;;;;1.73;1.13;;;;;;;;;;4975911;28;20034;-21
2021/12/05 06:30:15;;;;;;;1.13;1.00;;;;;;;;;;4976473;28;20035;-21
2021/12/05 06:38:09;;;;;;;1.40;0.80;;;;;;;;;;4975940;28;20046;-21
2021/12/05 06:40:58;;;;;;;2.30;1.10;;;;;;;;;;4976104;28;20026;-21
2021/12/05 06:48:26;;;;;;;2.75;1.48;;;;;;;;;;4976258;28;20039;-20
2021/12/05 06:50:52;;;;;;;3.05;1.25;;;;;;;;;;4975867;28;20026;-21
2021/12/05 06:53:18;;;;;;;2.28;1.15;;;;;;;;;;4975641;28;20019;-21
2021/12/05 06:55:45;;;;;;;3.92;0.77;;;;;;;;;;4975654;28;20093;-21
2021/12/05 06:58:11;;;;;;;3.10;0.90;;;;;;;;;;4975874;28;20023;-21
2021/12/05 07:00:37;;;;;;;1.73;1.05;;;;;;;;;;4975605;28;20074;-21
2021/12/05 07:03:05;;;;;;;3.42;1.23;;;;;;;;;;4975456;28;20051;-21
2021/12/05 07:05:44;;;;;;;4.68;1.17;;;;;;;;;;4975379;28;20098;-21
2021/12/05 07:08:13;;;;;;;4.03;1.30;;;;;;;;;;4975826;28;20037;-22
2021/12/05 07:10:59;;;;;;;1.63;0.80;;;;;;;;;;4958362;28;20485;-21
2021/12/05 07:16:44;;;;;;;2.35;1.60;;;;;;;;;;4975408;28;20362;-21
2021/12/05 07:18:56;;;;;;;1.48;1.02;;;;;;;;;;4961890;28;20477;-21
2021/12/05 07:21:32;;;;;;;2.33;1.13;;;;;;;;;;4944528;28;20445;-20
2021/12/05 07:40:30;;;;;;;1.95;1.20;;;;;;;;;;4979104;28;20041;-20
2021/12/05 07:43:01;;;;;;;2.13;0.90;;;;;;;;;;4978965;28;20042;-21
2021/12/05 07:45:42;;;;;;;1.63;0.95;;;;;;;;;;4978926;28;20501;-21
2021/12/05 07:48:13;;;;;;;1.80;1.00;;;;;;;;;;4978879;28;20027;-23
2021/12/05 07:50:53;;;;;;;1.23;1.10;;;;;;;;;;4978822;28;20039;-21
2021/12/05 07:53:26;;;;;;;1.33;1.23;;;;;;;;;;4978600;28;20058;-21
2021/12/05 07:55:56;;;;;;;1.73;1.20;;;;;;;;;;4978700;28;20474;-22
2021/12/05 08:01:26;;;;;;;1.30;1.15;;;;;;;;;;4978919;28;20030;-24
2021/12/05 08:14:57;;;;;;;2.42;1.63;;;;;;;;;;4978420;28;20069;-22
2021/12/05 08:17:23;;;;;;;1.98;1.02;;;;;;;;;;4978606;28;20031;-21
2021/12/05 08:19:49;;;;;;;2.55;1.13;;;;;;;;;;4978510;28;20022;-21
2021/12/05 08:22:17;;;;;;;1.85;0.93;;;;;;;;;;4978407;28;20121;-24
2021/12/05 08:24:46;;;;;;;2.78;1.08;;;;;;;;;;4978473;28;20046;-21
2021/12/05 08:27:15;;;;;;;1.85;1.15;;;;;;;;;;4978112;28;20497;-22
2021/12/05 08:29:47;;;;;;;3.60;1.30;;;;;;;;;;4978055;28;20035;-21
2021/12/05 08:32:45;;;;;;;2.45;1.15;;;;;;;;;;4978229;28;20109;-21
2021/12/05 08:35:25;;;;;;;1.83;1.02;;;;;;;;;;4978304;28;20041;-22
2021/12/05 08:43:57;;;;;;;1.55;1.15;;;;;;;;;;4977973;28;20045;-20
2021/12/05 09:53:07;;;;;;;0.98;0.60;;;;;;;;;;4976679;28;20594;-21
2021/12/05 10:11:17;;;;;;;1.08;0.80;;;;;;;;;;4976320;28;20045;-22
2021/12/05 10:17:23;;;;;;;2.78;1.15;;;;;;;;;;4976534;28;20045;-21
2021/12/05 10:34:28;;;;;;;1.60;0.75;;;;;;;;;;4976168;28;20042;-21
2021/12/05 10:37:06;;;;;;;1.67;0.80;;;;;;;;;;4975846;28;20446;-21
2021/12/05 10:39:32;;;;;;;1.13;0.80;;;;;;;;;;4976015;28;20023;-21
2021/12/05 10:42:12;;;;;;;2.22;1.00;;;;;;;;;;4959613;28;20045;-21
2021/12/05 10:44:45;;;;;;;1.13;0.77;;;;;;;;;;4976031;28;20057;-21
2021/12/05 10:47:12;;;;;;;0.90;0.70;;;;;;;;;;4975974;28;20062;-21
2021/12/05 10:49:40;;;;;;;0.77;0.65;;;;;;;;;;4975595;28;20041;-21
2021/12/05 10:52:12;;;;;;;1.08;0.82;;;;;;;;;;4975552;28;20125;-21
2021/12/05 10:54:39;;;;;;;1.83;1.02;;;;;;;;;;4975957;28;20344;-27
2021/12/05 10:57:05;;;;;;;2.00;1.10;;;;;;;;;;4975574;28;20022;-20
2021/12/05 10:59:38;;;;;;;1.42;0.80;;;;;;;;;;4975600;28;20053;-22
2021/12/05 11:02:11;;;;;;;2.42;1.02;;;;;;;;;;4975797;28;20049;-22
2021/12/05 11:04:44;;;;;;;4.57;1.58;;;;;;;;;;4975380;28;20062;-22
2021/12/05 11:07:11;;;;;;;2.35;1.15;;;;;;;;;;4975485;28;20041;-21
2021/12/05 11:09:39;;;;;;;1.42;0.73;;;;;;;;;;4975530;28;20109;-21
2021/12/05 11:12:09;;;;;;;1.75;1.17;;;;;;;;;;4958304;28;20034;-22
2021/12/05 11:14:36;;;;;;;1.33;0.68;;;;;;;;;;4961165;28;20035;-22
2021/12/05 11:17:16;;;;;;;0.93;0.90;;;;;;;;;;4979723;28;20031;-21
2021/12/05 11:19:51;;;;;;;0.80;0.70;;;;;;;;;;4962346;28;20034;-22
2021/12/05 11:22:19;;;;;;;1.50;0.93;;;;;;;;;;4979339;28;20023;-21
2021/12/05 11:24:50;;;;;;;1.60;0.93;;;;;;;;;;4979237;28;20469;-21
2021/12/05 11:27:16;;;;;;;2.08;0.80;;;;;;;;;;4979524;28;20027;-22
2021/12/05 11:29:50;;;;;;;2.03;0.80;;;;;;;;;;4979763;28;20034;-21
2021/12/05 11:32:18;;;;;;;0.50;0.50;;;;;;;;;;4962025;28;20462;-20
2021/12/05 11:34:46;;;;;;;1.00;0.90;;;;;;;;;;4979130;28;20485;-21
2021/12/05 11:37:12;;;;;;;2.00;1.00;;;;;;;;;;4962031;28;20031;-21
2021/12/05 11:39:38;;;;;;;1.00;0.90;;;;;;;;;;4979048;28;20023;-21
2021/12/05 11:42:25;;;;;;;1.30;0.80;;;;;;;;;;4961913;28;20027;-21
2021/12/05 11:45:03;;;;;;;3.67;1.10;;;;;;;;;;4979278;28;20027;-21
2021/12/05 11:47:36;;;;;;;1.30;1.20;;;;;;;;;;4979234;28;20054;-21
2021/12/05 11:50:06;;;;;;;1.00;0.70;;;;;;;;;;4978844;28;20065;-21
2021/12/05 11:52:37;;;;;;;1.02;0.65;;;;;;;;;;4978933;28;20035;-21
2021/12/05 11:55:04;;;;;;;1.05;0.77;;;;;;;;;;4979335;28;20023;-21
2021/12/05 11:57:30;;;;;;;2.80;0.60;;;;;;;;;;4978729;28;20031;-21
2021/12/05 11:59:58;;;;;;;1.13;1.00;;;;;;;;;;4978737;28;20039;-21
2021/12/05 12:02:29;;;;;;;1.55;1.17;;;;;;;;;;4978600;28;20026;-21
2021/12/05 12:05:06;;;;;;;0.98;0.98;;;;;;;;;;4978418;28;20047;-21
2021/12/05 12:07:34;;;;;;;1.10;0.90;;;;;;;;;;4978566;28;20418;-21
2021/12/05 12:10:19;;;;;;;0.90;0.70;;;;;;;;;;4979250;28;20157;-21
2021/12/05 12:12:51;;;;;;;1.02;0.75;;;;;;;;;;4978812;28;20070;-21
2021/12/05 12:15:18;;;;;;;1.90;0.52;;;;;;;;;;4978919;28;20051;-21
2021/12/05 12:17:46;;;;;;;2.00;0.82;;;;;;;;;;4978598;28;20060;-21
2021/12/05 12:20:16;;;;;;;2.15;0.98;;;;;;;;;;4978593;28;20545;-21
2021/12/05 12:22:43;;;;;;;1.00;0.80;;;;;;;;;;4978567;28;20035;-21
2021/12/05 12:25:11;;;;;;;0.75;0.70;;;;;;;;;;4978032;28;20403;-21
2021/12/05 12:27:38;;;;;;;0.82;0.70;;;;;;;;;;4978250;28;20046;-20
2021/12/05 12:30:08;;;;;;;1.50;0.68;;;;;;;;;;4978433;28;20035;-21
2021/12/05 12:32:37;;;;;;;1.63;0.93;;;;;;;;;;4977978;28;20047;-20
2021/12/05 12:35:10;;;;;;;1.13;0.63;;;;;;;;;;4978049;28;20129;-22
2021/12/05 12:38:09;;;;;;;1.17;0.65;;;;;;;;;;4978126;28;20027;-21
2021/12/05 12:40:37;;;;;;;1.70;0.55;;;;;;;;;;4925582;28;20045;-22
2021/12/05 12:43:04;;;;;;;0.90;0.60;;;;;;;;;;4978337;28;20031;-21
2021/12/05 12:45:36;;;;;;;1.58;0.93;;;;;;;;;;4978138;28;20075;-21
2021/12/05 12:48:03;;;;;;;1.20;0.88;;;;;;;;;;4960795;28;20078;-21
2021/12/05 12:50:35;;;;;;;1.27;0.93;;;;;;;;;;4977802;28;20038;-21
2021/12/05 12:53:10;;;;;;;1.23;0.60;;;;;;;;;;4977758;28;20035;-21
2021/12/05 12:55:37;;;;;;;1.20;0.75;;;;;;;;;;4977702;28;20034;-21
2021/12/05 12:58:06;;;;;;;0.85;0.57;;;;;;;;;;4977937;28;20107;-22
2021/12/05 13:00:33;;;;;;;1.58;1.33;;;;;;;;;;4977592;28;20023;-21
2021/12/05 13:03:02;;;;;;;0.68;0.60;;;;;;;;;;4977744;28;20041;-21
2021/12/05 13:11:07;;;;;;;1.88;0.85;;;;;;;;;;4977497;28;20485;-21
2021/12/05 13:13:36;;;;;;;0.50;0.50;;;;;;;;;;4977593;28;20027;-21
2021/12/05 13:16:16;;;;;;;0.60;0.50;;;;;;;;;;4977608;28;20414;-20
2021/12/05 13:18:43;;;;;;;1.42;1.27;;;;;;;;;;4977825;28;20023;-23
2021/12/05 13:21:18;;;;;;;1.25;0.68;;;;;;;;;;4977469;28;20038;-21
2021/12/05 13:23:50;;;;;;;2.65;0.90;;;;;;;;;;4977236;28;20027;-21
2021/12/05 13:26:35;;;;;;;1.15;0.70;;;;;;;;;;4977397;28;20035;-21
2021/12/05 13:29:21;;;;;;;1.45;0.88;;;;;;;;;;4976983;28;20034;-21
2021/12/05 13:31:56;;;;;;;0.70;0.50;;;;;;;;;;4977314;28;20027;-21
2021/12/05 13:34:35;;;;;;;0.82;0.80;;;;;;;;;;4977202;28;20027;-21
2021/12/05 13:37:10;;;;;;;0.88;0.68;;;;;;;;;;4976233;28;20030;-21
2021/12/05 13:39:39;;;;;;;1.45;1.00;;;;;;;;;;4977128;28;20023;-20
2021/12/05 13:42:08;;;;;;;0.43;0.43;;;;;;;;;;4977023;28;20387;-21
2021/12/05 13:44:57;;;;;;;1.63;0.90;;;;;;;;;;4976771;28;20031;-20
2021/12/05 13:47:29;;;;;;;1.27;0.93;;;;;;;;;;4976336;28;20114;-21
2021/12/05 13:49:56;;;;;;;0.88;0.75;;;;;;;;;;4976940;28;20031;-21
2021/12/05 13:52:36;;;;;;;1.27;0.93;;;;;;;;;;4976473;28;20023;-20
2021/12/05 13:55:21;;;;;;;0.98;0.77;;;;;;;;;;4976560;28;20052;-21
2021/12/05 13:58:06;;;;;;;0.63;0.60;;;;;;;;;;4977078;28;20022;-23
2021/12/05 14:00:43;;;;;;;1.05;0.60;;;;;;;;;;4977041;28;20027;-21
2021/12/05 14:03:09;;;;;;;1.95;0.90;;;;;;;;;;4976689;28;20477;-22
2021/12/05 14:05:35;;;;;;;0.93;0.88;;;;;;;;;;4976248;28;20050;-24
2021/12/05 14:08:02;;;;;;;0.90;0.70;;;;;;;;;;4976352;28;20089;-21
2021/12/05 14:10:42;;;;;;;0.80;0.60;;;;;;;;;;4976841;28;20030;-23
2021/12/05 14:13:08;;;;;;;0.88;0.68;;;;;;;;;;4976348;28;20117;-21
2021/12/05 14:15:35;;;;;;;1.10;0.93;;;;;;;;;;4976485;28;20109;-21
2021/12/05 14:18:01;;;;;;;0.50;0.50;;;;;;;;;;4976731;28;20454;-21
2021/12/05 14:20:29;;;;;;;0.55;0.55;;;;;;;;;;4976367;28;20411;-20
2021/12/05 14:22:57;;;;;;;0.73;0.70;;;;;;;;;;4975954;28;20089;-21
2021/12/05 14:25:25;;;;;;;0.75;0.75;;;;;;;;;;4976011;28;20030;-21
2021/12/05 14:27:53;;;;;;;1.20;0.70;;;;;;;;;;4976266;28;20045;-21
2021/12/05 14:30:20;;;;;;;0.70;0.60;;;;;;;;;;4976022;28;20127;-21
2021/12/05 14:32:48;;;;;;;2.47;0.80;;;;;;;;;;4975996;28;20069;-21
2021/12/05 14:35:16;;;;;;;1.73;0.73;;;;;;;;;;4975927;28;20034;-21
2021/12/05 14:37:44;;;;;;;0.80;0.80;;;;;;;;;;4975901;28;20458;-21
2021/12/05 14:40:14;;;;;;;0.60;0.60;;;;;;;;;;4975852;28;20501;-21
2021/12/05 14:42:42;;;;;;;0.65;0.60;;;;;;;;;;4975804;28;20066;-21
2021/12/05 14:45:11;;;;;;;0.95;0.75;;;;;;;;;;4976045;28;20038;-21
2021/12/05 14:47:39;;;;;;;1.35;0.50;;;;;;;;;;4958705;28;20026;-22
2021/12/05 14:50:11;;;;;;;1.30;0.60;;;;;;;;;;4975715;28;20426;-21
2021/12/05 14:52:37;;;;;;;;;;;;;;;;;;4976225;28;20031;-21
2021/12/05 14:55:05;;;;;;;2.38;0.60;;;;;;;;;;4975604;28;20364;-21
2021/12/05 14:57:33;;;;;;;0.70;0.70;;;;;;;;;;4975661;28;20085;-20
2021/12/05 15:00:18;;;;;;;0.82;0.82;;;;;;;;;;4975699;28;20058;-21
2021/12/05 15:02:45;;;;;;;0.80;0.80;;;;;;;;;;4975928;28;20026;-21
2021/12/05 15:05:13;;;;;;;1.30;0.90;;;;;;;;;;4975603;28;20047;-21
2021/12/05 15:07:40;;;;;;;0.70;0.70;;;;;;;;;;4975662;28;20062;-21
2021/12/05 15:10:07;;;;;;;1.05;0.60;;;;;;;;;;4975618;28;20070;-20
2021/12/05 15:12:34;;;;;;;0.65;0.55;;;;;;;;;;4975382;28;20035;-21
2021/12/05 15:15:07;;;;;;;1.27;1.00;;;;;;;;;;4975787;28;20027;-20
2021/12/05 15:17:36;;;;;;;0.77;0.60;;;;;;;;;;4975847;28;20022;-21
2021/12/05 15:20:12;;;;;;;0.68;0.68;;;;;;;;;;4975799;28;20038;-21
2021/12/05 15:22:39;;;;;;;0.82;0.70;;;;;;;;;;4975621;28;20174;-21
2021/12/05 15:25:07;;;;;;;0.70;0.70;;;;;;;;;;4975728;28;20111;-22
2021/12/05 15:27:35;;;;;;;0.93;0.60;;;;;;;;;;4975970;28;20113;-21
2021/12/05 15:30:04;;;;;;;1.23;0.63;;;;;;;;;;4975408;28;20031;-21
2021/12/05 15:32:32;;;;;;;0.50;0.50;;;;;;;;;;4975472;28;20529;-21
2021/12/05 15:34:59;;;;;;;1.58;0.85;;;;;;;;;;4958348;28;20061;-23
2021/12/05 15:37:26;;;;;;;0.50;0.50;;;;;;;;;;4975322;28;20031;-21
2021/12/05 15:39:54;;;;;;;3.05;1.75;;;;;;;;;;4975595;28;20058;-21
2021/12/05 15:42:22;;;;;;;0.82;0.60;;;;;;;;;;4975261;28;20041;-21
2021/12/05 15:44:50;;;;;;;1.00;0.93;;;;;;;;;;4975325;28;20031;-21
2021/12/05 15:47:28;;;;;;;0.63;0.63;;;;;;;;;;4975274;28;20034;-21
2021/12/05 15:49:59;;;;;;;0.60;0.60;;;;;;;;;;4975157;28;20041;-21
2021/12/05 15:52:43;;;;;;;0.85;0.52;;;;;;;;;;4974943;28;20031;-21
2021/12/05 15:55:27;;;;;;;0.70;0.70;;;;;;;;;;4975728;28;20047;-22
2021/12/05 15:57:55;;;;;;;1.13;0.60;;;;;;;;;;4975375;28;20362;-21
2021/12/05 16:00:31;;;;;;;1.15;1.02;;;;;;;;;;4977273;28;20027;-21
2021/12/05 16:02:58;;;;;;;0.60;0.60;;;;;;;;;;4978583;28;20035;-21
2021/12/05 16:05:25;;;;;;;0.50;0.50;;;;;;;;;;4978516;28;20050;-21
2021/12/05 16:07:51;;;;;;;0.82;0.73;;;;;;;;;;4978560;28;20034;-21
2021/12/05 16:10:20;;;;;;;1.25;0.73;;;;;;;;;;4978548;28;20026;-21
2021/12/05 16:12:47;;;;;;;1.48;0.70;;;;;;;;;;4978534;28;20019;-21
2021/12/05 16:15:14;;;;;;;2.25;0.63;;;;;;;;;;4961337;28;20117;-21
2021/12/05 16:17:41;;;;;;;1.00;0.57;;;;;;;;;;4978372;28;20114;-21
2021/12/05 16:20:08;;;;;;;0.60;0.60;;;;;;;;;;4978668;28;20357;-22
2021/12/05 16:22:53;;;;;;;1.38;1.25;;;;;;;;;;4978493;28;20366;-22
2021/12/05 16:25:20;;;;;;;1.48;0.70;;;;;;;;;;4978308;28;20041;-21
2021/12/05 16:27:55;;;;;;;1.38;0.70;;;;;;;;;;4978261;28;20038;-21
2021/12/05 16:30:25;;;;;;;0.77;0.47;;;;;;;;;;4978500;28;20122;-22
2021/12/05 16:32:52;;;;;;;0.95;0.68;;;;;;;;;;4978171;28;20049;-21
2021/12/05 16:35:33;;;;;;;0.60;0.60;;;;;;;;;;4978367;28;20034;-21
2021/12/05 16:38:01;;;;;;;0.55;0.50;;;;;;;;;;4961080;28;20023;-21
2021/12/05 16:40:29;;;;;;;0.52;0.52;;;;;;;;;;4978521;28;20559;-23
2021/12/05 16:43:09;;;;;;;0.77;0.40;;;;;;;;;;4977922;28;20054;-21
2021/12/05 16:45:38;;;;;;;0.82;0.63;;;;;;;;;;4978182;28;20023;-21
2021/12/05 16:48:05;;;;;;;0.93;0.68;;;;;;;;;;4977858;28;20027;-21
2021/12/05 16:50:32;;;;;;;0.90;0.60;;;;;;;;;;4978128;28;20055;-22
2021/12/05 16:52:58;;;;;;;0.63;0.50;;;;;;;;;;4977953;28;20421;-20
2021/12/05 16:55:29;;;;;;;0.70;0.60;;;;;;;;;;4977732;28;20114;-21
2021/12/05 16:58:15;;;;;;;2.27;0.70;;;;;;;;;;4977975;28;20102;-21
2021/12/05 17:00:43;;;;;;;3.05;0.70;;;;;;;;;;4960580;28;20039;-22
2021/12/05 17:03:09;;;;;;;0.90;0.73;;;;;;;;;;4977475;28;20034;-21
2021/12/05 17:05:38;;;;;;;1.00;0.60;;;;;;;;;;4977396;28;20066;-21
2021/12/05 17:08:13;;;;;;;0.50;0.50;;;;;;;;;;4977540;28;20045;-21
2021/12/05 17:10:48;;;;;;;0.80;0.68;;;;;;;;;;4976668;28;20102;-22
2021/12/05 17:13:19;;;;;;;0.47;0.47;;;;;;;;;;4977294;28;20050;-22
2021/12/05 17:15:46;;;;;;;0.73;0.50;;;;;;;;;;4977390;28;20034;-21
2021/12/05 17:18:20;;;;;;;0.77;0.70;;;;;;;;;;4977800;28;20019;-22
2021/12/05 17:21:01;;;;;;;1.10;0.60;;;;;;;;;;4978220;28;20054;-21
2021/12/05 17:23:30;;;;;;;0.60;0.60;;;;;;;;;;4977105;28;20026;-21
2021/12/05 17:25:58;;;;;;;1.05;0.82;;;;;;;;;;4977156;28;20030;-22
2021/12/05 17:28:32;;;;;;;1.30;0.77;;;;;;;;;;4977095;28;20105;-21
2021/12/05 17:31:01;;;;;;;0.30;0.30;;;;;;;;;;4977357;28;20039;-21
2021/12/05 17:33:30;;;;;;;0.70;0.70;;;;;;;;;;4976876;28;20050;-23
2021/12/05 17:35:58;;;;;;;1.55;1.38;;;;;;;;;;4976875;28;20053;-21
2021/12/05 17:38:35;;;;;;;0.90;0.90;;;;;;;;;;4977170;28;20038;-21
2021/12/05 17:41:02;;;;;;;1.00;0.73;;;;;;;;;;4977613;28;20026;-21
2021/12/05 17:43:28;;;;;;;0.52;0.52;;;;;;;;;;4959721;28;20055;-22
2021/12/05 17:45:56;;;;;;;0.50;0.50;;;;;;;;;;4959764;28;20070;-21
2021/12/05 17:48:22;;;;;;;1.10;0.60;;;;;;;;;;4976687;28;20034;-21
2021/12/05 17:50:52;;;;;;;1.02;0.60;;;;;;;;;;4976932;28;20066;-21
2021/12/05 17:53:19;;;;;;;0.95;0.70;;;;;;;;;;4976549;28;20035;-21
2021/12/05 17:55:47;;;;;;;1.20;0.70;;;;;;;;;;4959635;28;20114;-21
2021/12/05 17:58:34;;;;;;;1.13;0.73;;;;;;;;;;4976643;28;20042;-21
2021/12/05 18:03:46;;;;;;;1.10;1.10;;;;;;;;;;4976590;28;20447;-21
2021/12/05 18:06:20;;;;;;;0.50;0.40;;;;;;;;;;4976741;28;20049;-21
2021/12/05 18:08:47;;;;;;;0.70;0.70;;;;;;;;;;4976380;28;20027;-21
2021/12/05 18:11:20;;;;;;;1.90;0.63;;;;;;;;;;4976355;28;20102;-21
2021/12/05 18:13:50;;;;;;;0.40;0.40;;;;;;;;;;4976308;28;20516;-24
2021/12/05 18:16:23;;;;;;;0.75;0.60;;;;;;;;;;4976546;28;20031;-20
2021/12/05 18:18:50;;;;;;;0.75;0.50;;;;;;;;;;4976725;28;20351;-21
2021/12/05 18:21:18;;;;;;;0.80;0.80;;;;;;;;;;4976434;28;20512;-21
2021/12/05 18:23:44;;;;;;;0.75;0.55;;;;;;;;;;4975737;28;20038;-21
2021/12/05 18:26:11;;;;;;;0.90;0.80;;;;;;;;;;4976072;28;20031;-21
2021/12/05 18:28:38;;;;;;;0.75;0.75;;;;;;;;;;4976351;28;20070;-21
2021/12/05 18:31:05;;;;;;;0.98;0.68;;;;;;;;;;4975994;28;20096;-21
2021/12/05 18:33:33;;;;;;;0.82;0.63;;;;;;;;;;4975864;28;20034;-22
2021/12/05 18:36:00;;;;;;;0.55;0.55;;;;;;;;;;4975972;28;20023;-22
2021/12/05 18:38:27;;;;;;;0.60;0.50;;;;;;;;;;4975920;28;20152;-21
2021/12/05 18:40:56;;;;;;;0.50;0.50;;;;;;;;;;4975883;28;20065;-23
2021/12/05 18:43:27;;;;;;;0.82;0.65;;;;;;;;;;4976045;28;20066;-20
2021/12/05 18:45:54;;;;;;;0.73;0.70;;;;;;;;;;4959535;28;20045;-20
2021/12/05 18:48:21;;;;;;;0.47;0.47;;;;;;;;;;4975715;28;20035;-21
2021/12/05 18:50:47;;;;;;;0.65;0.50;;;;;;;;;;4958694;28;20113;-21
2021/12/05 18:53:16;;;;;;;0.63;0.32;;;;;;;;;;4958510;28;20030;-21
2021/12/05 18:55:43;;;;;;;0.60;0.60;;;;;;;;;;4975609;28;20377;-21
2021/12/05 18:58:10;;;;;;;0.60;0.60;;;;;;;;;;4975625;28;20061;-22
2021/12/05 19:04:19;;;;;;;1.10;0.75;;;;;;;;;;4975635;28;20045;-21
2021/12/05 19:06:14;;;;;;;0.60;0.60;;;;;;;;;;4975931;28;20134;-22
2021/12/05 19:09:42;;;;;;;0.97;0.60;;;;;;;;;;4976392;28;20486;-21
2021/12/05 19:11:47;;;;;;;2.28;0.80;;;;;;;;;;4960929;28;20043;-21
2021/12/05 19:14:18;;;;;;;0.50;0.50;;;;;;;;;;4975367;28;20030;-21
2021/12/05 19:16:49;;;;;;;0.60;0.60;;;;;;;;;;4958632;28;20105;-21
2021/12/05 19:19:15;;;;;;;;;;;;;;;;;;4959037;28;20138;-25
2021/12/05 19:21:42;;;;;;;0.55;0.50;;;;;;;;;;4975459;28;19917;-21
2021/12/05 19:24:09;;;;;;;1.20;0.50;;;;;;;;;;4958299;28;20038;-21
2021/12/05 19:26:35;;;;;;;0.50;0.40;;;;;;;;;;4975401;28;20027;-22
2021/12/05 19:29:02;;;;;;;0.40;0.40;;;;;;;;;;4975668;28;20121;-21
2021/12/05 19:31:29;;;;;;;1.02;0.65;;;;;;;;;;4975230;28;20027;-21
2021/12/05 19:33:56;;;;;;;0.50;0.50;;;;;;;;;;4975281;28;20106;-21
2021/12/05 19:36:26;;;;;;;0.80;0.65;;;;;;;;;;4979455;28;20444;-21
2021/12/05 19:38:53;;;;;;;0.57;0.40;;;;;;;;;;4962139;28;20062;-21
2021/12/05 19:41:19;;;;;;;0.73;0.60;;;;;;;;;;4961985;28;20054;-22
2021/12/05 19:43:46;;;;;;;0.95;0.40;;;;;;;;;;4978959;28;20030;-21
2021/12/05 19:46:13;;;;;;;0.57;0.57;;;;;;;;;;4979066;28;20031;-21
2021/12/05 19:48:40;;;;;;;0.50;0.50;;;;;;;;;;4979355;28;20365;-22
2021/12/05 19:51:08;;;;;;;0.93;0.50;;;;;;;;;;4979027;28;20035;-22
2021/12/05 19:53:38;;;;;;;0.63;0.63;;;;;;;;;;4979093;28;20441;-21
2021/12/05 19:56:06;;;;;;;0.60;0.57;;;;;;;;;;4979216;28;20027;-21
2021/12/05 19:58:32;;;;;;;1.60;0.80;;;;;;;;;;4979143;28;20031;-21
2021/12/05 20:00:58;;;;;;;1.23;0.63;;;;;;;;;;4978888;28;20450;-21